Time;durP1;ratioP1;P1;durP2;ratioP2;P2;SDS_P1;SDS_P2;PMS_P1;PMS_P2;Temp;Humidity;BMP_temperature;BMP_pressure;BME280_temperature;BME280_humidity;BME280_pressure;Samples;Min_cycle;Max_cycle;Signal;HPM_P1;HPM_P2
2023/06/02 00:00:00;;;;;;;13.30;6.73;;;;;;;19.66;42.27;96030.91;4987240;28;20181;-69
2023/06/02 00:02:29;;;;;;;4.67;3.97;;;;;;;19.62;42.12;96034.81;4988398;28;20177;-69
2023/06/02 00:04:59;;;;;;;7.70;4.13;;;;;;;19.57;42.10;96033.53;4988616;28;20301;-67
2023/06/02 00:07:27;;;;;;;6.03;4.37;;;;;;;19.54;42.20;96034.63;4989128;28;20464;-69
2023/06/02 00:09:53;;;;;;;6.13;4.20;;;;;;;19.37;42.36;96035.22;4986407;28;20447;-69
2023/06/02 00:12:18;;;;;;;8.50;4.17;;;;;;;19.40;42.36;96041.13;4978980;28;20531;-70
2023/06/02 00:14:47;;;;;;;6.63;4.17;;;;;;;19.35;42.56;96031.88;4986685;28;20203;-69
2023/06/02 00:17:14;;;;;;;9.40;4.43;;;;;;;19.18;42.85;96030.59;4982894;28;20211;-67
2023/06/02 00:19:42;;;;;;;9.93;4.20;;;;;;;19.32;42.65;96037.41;4987885;28;20477;-70
2023/06/02 00:22:13;;;;;;;7.20;4.10;;;;;;;19.27;42.43;96040.47;4982671;28;20542;-70
2023/06/02 00:24:40;;;;;;;6.27;4.57;;;;;;;19.18;42.60;96034.13;4988220;28;20423;-68
2023/06/02 00:27:07;;;;;;;5.90;4.00;;;;;;;19.16;42.33;96038.72;4989170;28;20474;-69
2023/06/02 00:29:32;;;;;;;6.07;4.50;;;;;;;19.19;42.08;96032.31;4989164;28;20427;-68
2023/06/02 00:31:58;;;;;;;4.90;4.30;;;;;;;19.12;42.41;96029.31;4987368;28;20428;-69
2023/06/02 00:34:23;;;;;;;10.27;5.17;;;;;;;19.02;42.74;96033.72;4986964;28;20250;-70
2023/06/02 00:36:48;;;;;;;7.27;4.60;;;;;;;19.03;42.74;96028.25;4991344;28;20668;-70
2023/06/02 00:39:14;;;;;;;12.20;5.27;;;;;;;19.12;42.49;96029.31;4993918;28;20184;-69
2023/06/02 00:41:40;;;;;;;11.77;4.80;;;;;;;18.94;43.11;96022.88;4987349;28;20199;-68
2023/06/02 00:44:05;;;;;;;21.33;6.00;;;;;;;18.95;43.16;96028.06;4988109;28;20181;-70
2023/06/02 00:46:30;;;;;;;6.30;4.90;;;;;;;18.94;42.99;96031.69;4987737;28;20197;-70
2023/06/02 00:48:56;;;;;;;6.57;4.00;;;;;;;19.00;42.58;96033.00;4988630;28;20201;-68
2023/06/02 00:51:22;;;;;;;6.40;4.27;;;;;;;18.90;42.97;96040.03;4970740;28;20185;-71
2023/06/02 00:53:48;;;;;;;6.53;4.87;;;;;;;18.89;42.77;96036.56;4988337;28;20180;-68
2023/06/02 00:56:14;;;;;;;10.97;5.03;;;;;;;18.78;43.21;96034.78;4988681;28;20416;-70
2023/06/02 00:58:44;;;;;;;7.57;4.53;;;;;;;18.80;43.03;96034.66;4982361;28;20603;-70
2023/06/02 01:01:10;;;;;;;7.80;4.53;;;;;;;18.89;42.79;96033.06;4987182;28;20424;-69
2023/06/02 01:03:37;;;;;;;5.20;4.70;;;;;;;18.86;42.96;96034.16;4986393;28;20432;-69
2023/06/02 01:06:05;;;;;;;4.80;4.30;;;;;;;18.83;42.67;96029.94;4984356;28;21325;-70
2023/06/02 01:08:32;;;;;;;12.20;5.03;;;;;;;18.74;42.72;96025.34;4988181;28;20440;-67
2023/06/02 01:10:59;;;;;;;5.87;4.40;;;;;;;18.81;42.36;96028.38;4987890;28;20507;-70
2023/06/02 01:13:25;;;;;;;5.63;4.60;;;;;;;18.71;42.52;96032.72;4987657;28;20423;-67
2023/06/02 01:15:50;;;;;;;7.03;4.77;;;;;;;18.78;42.56;96029.47;4987885;28;20420;-69
2023/06/02 01:18:16;;;;;;;10.40;5.20;;;;;;;18.70;42.51;96023.06;4983088;28;20231;-71
2023/06/02 01:20:44;;;;;;;8.70;5.47;;;;;;;18.79;42.49;96027.66;4985371;28;20180;-70
2023/06/02 01:23:23;;;;;;;7.33;4.70;;;;;;;18.67;42.85;96026.81;4985321;28;20478;-69
2023/06/02 01:25:52;;;;;;;6.20;4.53;;;;;;;18.64;43.32;96024.44;4987376;28;20503;-70
2023/06/02 01:28:18;;;;;;;5.30;4.63;;;;;;;18.64;43.30;96029.75;4984250;28;20567;-66
2023/06/02 01:30:43;;;;;;;4.93;4.20;;;;;;;18.62;43.50;96026.38;4980990;28;20428;-70
2023/06/02 01:33:56;;;;;;;6.17;5.53;;;;;;;18.50;44.00;96027.38;4987425;28;20172;-69
2023/06/02 01:36:23;;;;;;;25.43;6.53;;;;;;;18.50;44.33;96024.72;4965209;28;20662;-69
2023/06/02 01:38:50;;;;;;;11.83;5.67;;;;;;;18.44;45.10;96020.72;4982930;28;20555;-70
2023/06/02 01:41:18;;;;;;;12.67;4.93;;;;;;;18.37;45.73;96017.72;4985937;28;20423;-69
2023/06/02 01:43:45;;;;;;;7.03;4.30;;;;;;;18.26;45.80;96017.78;4987065;28;20774;-69
2023/06/02 01:46:11;;;;;;;11.70;5.60;;;;;;;18.28;46.08;96020.28;4986716;28;20507;-70
2023/06/02 01:48:36;;;;;;;5.97;4.73;;;;;;;18.31;46.12;96022.72;4987293;28;20442;-69
2023/06/02 01:51:02;;;;;;;8.67;5.20;;;;;;;18.29;46.08;96022.00;4987113;28;20196;-70
2023/06/02 01:53:27;;;;;;;21.83;6.10;;;;;;;18.25;45.99;96016.06;4983126;28;20188;-67
2023/06/02 01:55:54;;;;;;;9.60;5.33;;;;;;;18.17;46.12;96023.81;4986532;28;20674;-69
2023/06/02 01:58:20;;;;;;;5.03;4.50;;;;;;;18.16;45.72;96025.59;4987155;28;20195;-69
2023/06/02 02:00:45;;;;;;;7.07;5.30;;;;;;;18.17;45.32;96023.81;4986778;28;20412;-69
2023/06/02 02:03:12;;;;;;;9.27;4.87;;;;;;;18.09;45.22;96024.41;4982300;28;20446;-67
2023/06/02 02:05:37;;;;;;;18.97;6.90;;;;;;;18.08;44.34;96022.75;4982112;28;20235;-70
2023/06/02 02:08:04;;;;;;;14.43;5.17;;;;;;;18.07;43.09;96020.19;4982696;28;20460;-70
2023/06/02 02:10:30;;;;;;;14.93;5.47;;;;;;;18.10;42.90;96017.31;4984965;28;20173;-70
2023/06/02 02:12:55;;;;;;;7.30;4.80;;;;;;;18.02;42.74;96023.22;4987025;28;21319;-70
2023/06/02 02:15:21;;;;;;;8.70;5.57;;;;;;;17.94;42.32;96017.69;4985211;28;20169;-70
2023/06/02 02:17:47;;;;;;;6.97;4.97;;;;;;;17.98;42.53;96016.47;4987154;28;20618;-71
2023/06/02 02:20:16;;;;;;;13.30;6.60;;;;;;;17.95;42.33;96022.88;4987093;28;20260;-71
2023/06/02 02:22:43;;;;;;;10.70;4.60;;;;;;;17.90;42.33;96019.72;4985561;28;20441;-71
2023/06/02 02:25:08;;;;;;;6.53;5.03;;;;;;;17.96;41.92;96024.56;4986785;28;20566;-68
2023/06/02 02:27:35;;;;;;;13.27;6.63;;;;;;;17.90;42.04;96022.38;4986702;28;20550;-69
2023/06/02 02:30:00;;;;;;;19.00;6.43;;;;;;;17.89;42.13;96022.53;4987037;28;20248;-71
2023/06/02 02:32:26;;;;;;;8.63;5.13;;;;;;;17.79;42.51;96014.41;4986956;28;20840;-71
2023/06/02 02:34:51;;;;;;;7.10;4.70;;;;;;;17.76;42.75;96012.84;4987034;28;20539;-70
2023/06/02 02:37:19;;;;;;;27.03;8.70;;;;;;;17.79;43.18;96017.06;4986653;28;20227;-69
2023/06/02 02:39:45;;;;;;;24.43;6.17;;;;;;;17.74;43.90;96016.56;4986775;28;20243;-66
2023/06/02 02:42:10;;;;;;;16.70;6.93;;;;;;;17.62;44.22;96015.72;4986283;28;20908;-70
2023/06/02 02:44:36;;;;;;;8.03;5.13;;;;;;;17.54;44.98;96024.28;4986168;28;20286;-68
2023/06/02 02:47:02;;;;;;;6.10;4.50;;;;;;;17.49;45.49;96021.13;4986792;28;20559;-70
2023/06/02 02:49:28;;;;;;;11.73;5.20;;;;;;;17.48;45.71;96022.13;4986893;28;20173;-70
2023/06/02 02:51:53;;;;;;;38.33;8.10;;;;;;;17.36;46.16;96028.34;4983646;28;20436;-70
2023/06/02 02:54:19;;;;;;;46.83;9.30;;;;;;;17.45;46.36;96032.94;4984257;28;20833;-68
2023/06/02 02:56:45;;;;;;;16.27;7.20;;;;;;;17.40;46.15;96024.50;4984531;28;20184;-69
2023/06/02 02:59:12;;;;;;;15.10;6.23;;;;;;;17.33;46.95;96025.94;4986394;28;20198;-69
2023/06/02 03:01:43;;;;;;;11.90;5.30;;;;;;;17.27;46.63;96029.06;4986331;28;20256;-67
2023/06/02 03:04:10;;;;;;;15.57;5.90;;;;;;;17.22;47.15;96025.91;4983223;28;20463;-70
2023/06/02 03:06:37;;;;;;;15.13;7.63;;;;;;;17.25;47.06;96025.69;4981978;28;20460;-68
2023/06/02 03:09:03;;;;;;;21.73;6.90;;;;;;;17.19;47.24;96026.16;4979694;28;20448;-71
2023/06/02 03:11:28;;;;;;;7.97;4.57;;;;;;;17.14;47.66;96026.50;4986044;28;21121;-69
2023/06/02 03:13:53;;;;;;;8.60;5.63;;;;;;;17.18;47.22;96021.81;4983882;28;20180;-68
2023/06/02 03:16:19;;;;;;;6.33;5.27;;;;;;;17.12;46.88;96023.94;4981276;28;20204;-68
2023/06/02 03:18:45;;;;;;;13.07;5.13;;;;;;;17.16;46.56;96021.94;4982034;28;20200;-69
2023/06/02 03:21:10;;;;;;;18.17;6.10;;;;;;;17.16;46.09;96021.94;4985808;28;20177;-69
2023/06/02 03:23:36;;;;;;;8.73;4.80;;;;;;;17.11;45.98;96019.63;4985845;28;20626;-70
2023/06/02 03:26:03;;;;;;;7.70;5.47;;;;;;;17.07;45.57;96015.50;4985703;28;20188;-70
2023/06/02 03:28:28;;;;;;;21.00;6.73;;;;;;;16.99;45.43;96017.06;4985972;28;20951;-69
2023/06/02 03:30:54;;;;;;;38.23;9.33;;;;;;;17.04;45.39;96017.56;4986484;28;20416;-70
2023/06/02 03:33:19;;;;;;;21.37;7.27;;;;;;;17.09;44.78;96013.59;4986225;28;20177;-71
2023/06/02 03:35:45;;;;;;;13.20;5.63;;;;;;;17.09;44.95;96018.06;5021530;28;20256;-69
2023/06/02 03:38:11;;;;;;;14.90;6.93;;;;;;;17.17;44.44;96020.13;4990030;28;20662;-71
2023/06/02 03:40:36;;;;;;;9.40;5.83;;;;;;;17.23;44.71;96022.31;4987944;28;20423;-70
2023/06/02 03:43:01;;;;;;;37.57;7.97;;;;;;;17.28;44.35;96012.19;4988348;28;20173;-71
2023/06/02 03:45:27;;;;;;;9.37;5.37;;;;;;;17.44;44.20;96010.03;4988525;28;20185;-70
2023/06/02 03:47:52;;;;;;;12.43;5.70;;;;;;;17.37;44.30;96014.13;4987260;28;20204;-68
2023/06/02 03:50:17;;;;;;;14.53;5.83;;;;;;;17.44;44.16;96018.00;4986376;28;20335;-70
2023/06/02 03:52:43;;;;;;;17.27;5.97;;;;;;;17.48;43.83;96014.16;4985630;28;20169;-71
2023/06/02 03:55:08;;;;;;;10.20;5.00;;;;;;;17.55;43.45;96020.69;4986136;28;20932;-70
2023/06/02 03:57:34;;;;;;;9.90;5.87;;;;;;;17.68;42.82;96014.41;4986662;28;20247;-70
2023/06/02 03:59:59;;;;;;;8.20;5.53;;;;;;;17.79;41.80;96022.38;4986283;28;20823;-68
2023/06/02 04:02:25;;;;;;;18.70;6.40;;;;;;;17.88;41.25;96021.69;4982588;28;20298;-68
2023/06/02 04:04:51;;;;;;;15.67;6.20;;;;;;;18.03;40.91;96026.75;4985206;28;20682;-70
2023/06/02 04:07:16;;;;;;;31.87;7.90;;;;;;;18.09;41.00;96031.53;4986107;28;20204;-72
2023/06/02 04:09:42;;;;;;;18.33;6.07;;;;;;;18.11;40.53;96024.28;4989704;28;20169;-68
2023/06/02 04:12:07;;;;;;;14.60;8.27;;;;;;;18.23;40.65;96036.59;4989502;28;20267;-70
2023/06/02 04:14:33;;;;;;;10.37;6.03;;;;;;;18.39;39.95;96036.19;4989156;28;20176;-69
2023/06/02 04:16:58;;;;;;;20.53;7.20;;;;;;;18.55;39.85;96035.81;4989577;28;20224;-69
2023/06/02 04:19:24;;;;;;;16.43;7.10;;;;;;;18.54;39.73;96039.41;4989281;28;20980;-69
2023/06/02 04:21:49;;;;;;;8.10;5.60;;;;;;;18.63;39.56;96041.31;4989126;28;20184;-68
2023/06/02 04:24:15;;;;;;;14.70;6.53;;;;;;;18.36;40.53;96042.63;4988906;28;20177;-70
2023/06/02 04:26:40;;;;;;;22.43;7.90;;;;;;;18.67;39.87;96048.09;4989307;28;20654;-68
2023/06/02 04:29:06;;;;;;;7.87;4.87;;;;;;;18.77;39.39;96043.72;4989697;28;20212;-69
2023/06/02 04:31:43;;;;;;;6.23;5.63;;;;;;;18.97;38.83;96049.22;4989446;28;20184;-69
2023/06/02 04:34:12;;;;;;;9.87;5.73;;;;;;;18.91;39.43;96049.72;4988919;28;20511;-70
2023/06/02 04:36:38;;;;;;;9.80;6.03;;;;;;;19.07;38.91;96047.47;4989124;28;20435;-71
2023/06/02 04:39:08;;;;;;;10.63;4.93;;;;;;;19.10;38.70;96047.22;4988889;28;20432;-68
2023/06/02 04:41:36;;;;;;;17.10;6.20;;;;;;;19.29;37.82;96053.66;4988844;28;20514;-69
2023/06/02 04:44:02;;;;;;;9.50;7.37;;;;;;;19.29;37.94;96043.84;4988669;28;20428;-70
2023/06/02 04:46:27;;;;;;;26.73;6.80;;;;;;;19.35;38.32;96042.50;4988690;28;21169;-70
2023/06/02 04:48:53;;;;;;;13.93;5.37;;;;;;;19.39;38.11;96052.75;4985990;28;20566;-69
2023/06/02 04:51:19;;;;;;;9.77;5.87;;;;;;;19.67;37.23;96042.41;4995943;28;20217;-68
2023/06/02 04:53:45;;;;;;;10.00;5.97;;;;;;;19.52;37.56;96051.72;4987595;28;20729;-68
2023/06/02 04:56:11;;;;;;;8.00;5.30;;;;;;;19.51;37.63;96047.34;4987238;28;20436;-68
2023/06/02 04:58:37;;;;;;;10.80;5.73;;;;;;;19.34;38.22;96051.44;4987138;28;20208;-67
2023/06/02 05:01:03;;;;;;;10.00;5.20;;;;;;;19.49;38.05;96049.28;4985833;28;20188;-69
2023/06/02 05:03:28;;;;;;;7.57;5.53;;;;;;;19.66;37.72;96043.38;4987169;28;20428;-70
2023/06/02 05:05:53;;;;;;;45.13;10.40;;;;;;;19.38;38.17;96042.22;4987561;28;20176;-68
2023/06/02 05:08:19;;;;;;;51.03;12.80;;;;;;;19.44;38.25;96039.91;4992356;28;20637;-68
2023/06/02 05:10:44;;;;;;;25.77;7.93;;;;;;;19.83;37.54;96036.63;4994847;28;20172;-70
2023/06/02 05:13:10;;;;;;;16.60;7.60;;;;;;;19.98;37.23;96029.13;4985464;28;20701;-69
2023/06/02 05:15:35;;;;;;;12.40;5.57;;;;;;;20.42;36.61;96032.34;4985623;28;20191;-69
2023/06/02 05:18:00;;;;;;;16.10;7.13;;;;;;;20.16;37.33;96039.97;4984861;28;20271;-70
2023/06/02 05:20:26;;;;;;;22.10;7.40;;;;;;;20.19;37.14;96039.72;4984246;28;20185;-69
2023/06/02 05:22:51;;;;;;;8.23;5.53;;;;;;;20.40;36.62;96042.28;4984270;28;20674;-69
2023/06/02 05:25:17;;;;;;;8.87;5.20;;;;;;;20.58;36.17;96037.19;4984248;28;20263;-69
2023/06/02 05:27:42;;;;;;;8.17;5.90;;;;;;;20.28;37.20;96044.22;4985528;28;20678;-70
2023/06/02 05:30:08;;;;;;;9.57;5.90;;;;;;;20.49;36.63;96042.31;4988912;28;20303;-69
2023/06/02 05:32:33;;;;;;;13.03;4.97;;;;;;;20.76;36.24;96045.31;4988173;28;20181;-71
2023/06/02 05:34:59;;;;;;;11.70;5.80;;;;;;;20.89;36.55;96044.06;4986325;28;20594;-66
2023/06/02 05:37:24;;;;;;;23.70;6.20;;;;;;;21.09;35.66;96050.25;4986420;28;20199;-70
2023/06/02 05:39:50;;;;;;;17.90;6.33;;;;;;;21.31;35.21;96043.78;4986008;28;20216;-67
2023/06/02 05:42:15;;;;;;;8.57;6.17;;;;;;;21.26;35.61;96046.03;4987343;28;20188;-69
2023/06/02 05:44:40;;;;;;;14.23;5.60;;;;;;;21.02;36.15;96049.13;4986116;28;20172;-71
2023/06/02 05:47:06;;;;;;;9.50;5.80;;;;;;;21.34;35.38;96048.84;4997762;28;20224;-70
2023/06/02 05:49:31;;;;;;;8.70;5.23;;;;;;;21.46;36.18;96056.72;4986849;28;20185;-68
2023/06/02 05:51:57;;;;;;;13.00;5.70;;;;;;;21.60;36.11;96052.78;4987723;28;20528;-68
2023/06/02 05:54:22;;;;;;;15.20;6.00;;;;;;;21.28;35.85;96060.09;4986192;28;20200;-67
2023/06/02 05:56:50;;;;;;;8.50;6.00;;;;;;;21.14;36.54;96053.34;4985705;28;20642;-68
2023/06/02 05:59:16;;;;;;;18.27;6.83;;;;;;;21.13;36.47;96051.66;4976679;28;20252;-67
2023/06/02 06:01:41;;;;;;;13.53;5.90;;;;;;;21.23;36.58;96046.31;4984834;28;20427;-70
2023/06/02 06:04:06;;;;;;;10.23;5.63;;;;;;;21.14;36.87;96058.69;4983725;28;20843;-67
2023/06/02 06:06:32;;;;;;;9.93;6.13;;;;;;;21.09;37.05;96054.75;4979510;28;20942;-69
2023/06/02 06:08:57;;;;;;;8.80;6.33;;;;;;;21.38;36.29;96054.75;4984154;28;20252;-69
2023/06/02 06:11:24;;;;;;;9.47;5.80;;;;;;;21.62;36.54;96056.97;4984111;28;20482;-68
2023/06/02 06:13:50;;;;;;;11.67;6.13;;;;;;;21.38;36.91;96056.53;4984094;28;20208;-68
2023/06/02 06:16:15;;;;;;;12.87;6.30;;;;;;;21.49;36.94;96053.75;4984708;28;20419;-68
2023/06/02 06:18:40;;;;;;;21.57;7.00;;;;;;;21.76;36.29;96056.53;4984440;28;20201;-68
2023/06/02 06:21:06;;;;;;;17.53;6.63;;;;;;;21.64;36.58;96060.34;4986642;28;20176;-69
2023/06/02 06:23:31;;;;;;;13.07;6.00;;;;;;;21.86;35.95;96067.16;4991395;28;20283;-68
2023/06/02 06:25:56;;;;;;;19.70;7.50;;;;;;;21.69;36.54;96058.09;4985324;28;20169;-67
2023/06/02 06:28:22;;;;;;;15.77;6.90;;;;;;;22.58;35.18;96048.72;4984731;28;20213;-69
2023/06/02 06:30:48;;;;;;;13.27;6.60;;;;;;;21.99;35.63;96059.69;4983853;28;20565;-69
2023/06/02 06:33:14;;;;;;;10.63;6.00;;;;;;;20.73;38.02;96065.13;4984339;28;20176;-68
2023/06/02 06:35:39;;;;;;;8.33;6.13;;;;;;;20.32;39.27;96071.47;4984244;28;20431;-69
2023/06/02 06:38:05;;;;;;;9.50;6.00;;;;;;;20.40;39.05;96068.94;4984512;28;20271;-68
2023/06/02 06:40:33;;;;;;;17.43;7.10;;;;;;;20.78;38.55;96078.03;4980667;28;20661;-69
2023/06/02 06:42:58;;;;;;;11.30;5.53;;;;;;;21.05;37.76;96078.22;4981287;28;20184;-68
2023/06/02 06:45:23;;;;;;;12.00;6.53;;;;;;;21.30;37.92;96074.13;4982165;28;20439;-69
2023/06/02 06:47:50;;;;;;;10.60;6.47;;;;;;;21.57;37.27;96069.91;4983363;28;20208;-67
2023/06/02 06:50:15;;;;;;;10.67;6.53;;;;;;;21.72;37.01;96073.81;4982789;28;20189;-68
2023/06/02 06:52:41;;;;;;;8.77;6.63;;;;;;;21.68;37.19;96075.06;4982842;28;20441;-67
2023/06/02 06:55:07;;;;;;;7.60;6.23;;;;;;;20.79;38.62;96074.38;5002762;28;20199;-69
2023/06/02 06:57:32;;;;;;;7.50;6.03;;;;;;;21.22;37.93;96081.16;4986654;28;20197;-68
2023/06/02 06:59:57;;;;;;;9.10;6.33;;;;;;;21.18;37.99;96085.09;4986177;28;20188;-69
2023/06/02 07:02:23;;;;;;;9.57;6.13;;;;;;;22.02;36.79;96073.75;4986129;28;20175;-70
2023/06/02 07:04:48;;;;;;;11.07;6.57;;;;;;;22.37;36.04;96075.72;4985287;28;20172;-69
2023/06/02 07:07:14;;;;;;;9.90;6.30;;;;;;;23.04;35.47;96070.97;4993224;28;20673;-68
2023/06/02 07:09:40;;;;;;;10.60;6.50;;;;;;;22.83;35.06;96066.72;4987578;28;20180;-68
2023/06/02 07:12:06;;;;;;;11.17;7.00;;;;;;;22.27;35.66;96077.59;4986158;28;20573;-68
2023/06/02 07:14:32;;;;;;;8.40;6.97;;;;;;;22.06;36.17;96088.47;4985815;28;20431;-68
2023/06/02 07:16:59;;;;;;;10.40;7.30;;;;;;;21.96;36.43;96089.34;4988325;28;20451;-68
2023/06/02 07:19:25;;;;;;;16.00;6.83;;;;;;;21.89;36.63;96082.91;4986217;28;20177;-68
2023/06/02 07:21:51;;;;;;;12.37;7.07;;;;;;;21.43;36.89;96081.03;4986450;28;20846;-70
2023/06/02 07:24:16;;;;;;;10.00;6.57;;;;;;;21.18;38.14;96090.44;4986125;28;20204;-67
2023/06/02 07:26:42;;;;;;;9.47;7.13;;;;;;;21.60;37.07;96082.13;4985211;28;21108;-69
2023/06/02 07:29:07;;;;;;;11.70;7.00;;;;;;;21.84;37.29;96079.81;4986253;28;20197;-67
2023/06/02 07:31:33;;;;;;;11.40;6.37;;;;;;;22.26;36.38;96076.75;4986417;28;20177;-68
2023/06/02 07:33:58;;;;;;;20.57;7.33;;;;;;;21.60;37.13;96092.81;4985889;28;20757;-69
2023/06/02 07:36:23;;;;;;;10.20;7.60;;;;;;;21.64;37.81;96092.41;4998052;28;20201;-70
2023/06/02 07:38:50;;;;;;;18.20;7.70;;;;;;;22.46;37.02;96090.03;4994749;28;20197;-69
2023/06/02 07:41:15;;;;;;;28.87;7.00;;;;;;;22.86;36.82;96083.47;4974273;28;20174;-69
2023/06/02 07:43:41;;;;;;;20.40;7.37;;;;;;;22.69;38.46;96085.97;4974031;28;20409;-70
2023/06/02 07:46:06;;;;;;;23.57;6.57;;;;;;;23.33;37.96;96080.59;4979586;28;20168;-66
2023/06/02 07:48:32;;;;;;;15.77;7.83;;;;;;;23.08;36.62;96084.88;4989233;28;20205;-69
2023/06/02 07:50:57;;;;;;;12.60;6.60;;;;;;;23.10;36.50;96085.56;4989915;28;20259;-69
2023/06/02 07:53:22;;;;;;;13.23;6.50;;;;;;;23.91;35.45;96081.94;4988674;28;20181;-70
2023/06/02 07:55:48;;;;;;;9.67;6.10;;;;;;;23.95;35.47;96083.25;4990980;28;20173;-71
2023/06/02 07:58:13;;;;;;;12.87;6.90;;;;;;;24.26;34.08;96080.91;4991493;28;20192;-70
2023/06/02 08:00:39;;;;;;;9.37;7.60;;;;;;;23.16;35.55;96088.47;4990774;28;20185;-71
2023/06/02 08:03:04;;;;;;;11.23;7.90;;;;;;;23.50;36.15;96087.78;4989115;28;20207;-70
2023/06/02 08:05:30;;;;;;;9.23;6.97;;;;;;;23.39;36.03;96085.34;4989418;28;20591;-70
2023/06/02 08:07:56;;;;;;;9.73;7.47;;;;;;;22.96;36.97;96093.13;4988576;28;20271;-70
2023/06/02 08:10:21;;;;;;;8.80;6.20;;;;;;;23.88;36.47;96085.72;4987860;28;20200;-71
2023/06/02 08:12:47;;;;;;;11.40;7.20;;;;;;;22.76;37.24;96080.84;5019045;28;20436;-68
2023/06/02 08:15:12;;;;;;;10.60;7.03;;;;;;;23.48;36.64;96092.47;4988838;28;20176;-70
2023/06/02 08:17:37;;;;;;;9.77;7.20;;;;;;;23.73;37.31;96087.28;4987349;28;20288;-70
2023/06/02 08:20:04;;;;;;;11.43;7.00;;;;;;;24.56;35.13;96084.13;4987092;28;20189;-68
2023/06/02 08:22:33;;;;;;;14.27;6.43;;;;;;;25.00;35.36;96074.00;4986855;28;20188;-70
2023/06/02 08:24:59;;;;;;;12.30;8.23;;;;;;;24.13;34.65;96073.31;4986651;28;20459;-69
2023/06/02 08:27:25;;;;;;;8.57;6.87;;;;;;;24.11;35.20;96069.13;4988283;28;20883;-68
2023/06/02 08:29:51;;;;;;;17.30;7.23;;;;;;;24.72;34.95;96078.81;4988014;28;20323;-68
2023/06/02 08:32:18;;;;;;;12.13;8.30;;;;;;;24.22;34.54;96071.53;4986422;28;20184;-67
2023/06/02 08:34:47;;;;;;;9.20;7.70;;;;;;;23.88;35.47;96067.84;4992064;28;20431;-68
2023/06/02 08:37:17;;;;;;;9.33;7.43;;;;;;;24.09;35.32;96066.59;4991978;28;20502;-68
2023/06/02 08:39:47;;;;;;;9.57;7.30;;;;;;;24.60;33.85;96072.91;4987189;28;20432;-67
2023/06/02 08:42:13;;;;;;;10.70;6.13;;;;;;;25.06;33.29;96070.69;4987116;28;20463;-67
2023/06/02 08:44:41;;;;;;;8.40;6.97;;;;;;;25.23;32.80;96059.97;4987432;28;21008;-67
2023/06/02 08:47:10;;;;;;;7.77;6.60;;;;;;;24.78;33.67;96063.88;4986535;28;20460;-69
2023/06/02 08:49:36;;;;;;;27.13;10.37;;;;;;;24.60;34.30;96070.22;4986399;28;20443;-68
2023/06/02 08:52:09;;;;;;;9.60;8.40;;;;;;;24.16;34.79;96072.16;4988243;28;20427;-69
2023/06/02 08:54:36;;;;;;;9.63;7.63;;;;;;;23.93;35.29;96067.38;4987515;28;20412;-68
2023/06/02 08:57:03;;;;;;;12.73;7.37;;;;;;;24.01;34.80;96066.56;4988499;28;20488;-67
2023/06/02 08:59:29;;;;;;;11.10;6.93;;;;;;;24.37;34.67;96067.25;4987625;28;20475;-68
2023/06/02 09:01:55;;;;;;;8.73;6.63;;;;;;;24.56;33.61;96065.34;4987986;28;20477;-68
2023/06/02 09:04:20;;;;;;;11.73;7.07;;;;;;;23.78;34.25;96066.25;4987807;28;20185;-68
2023/06/02 09:06:49;;;;;;;16.03;6.53;;;;;;;24.75;33.21;96059.69;4991733;28;20209;-69
2023/06/02 09:09:15;;;;;;;10.33;7.00;;;;;;;25.06;32.88;96064.44;4978131;28;20752;-69
2023/06/02 09:11:57;;;;;;;8.67;6.53;;;;;;;24.95;32.94;96068.31;4988743;28;20420;-68
2023/06/02 09:14:23;;;;;;;12.77;6.90;;;;;;;24.73;33.57;96067.06;4988343;28;20463;-69
2023/06/02 09:16:49;;;;;;;8.10;7.30;;;;;;;24.99;33.46;96069.63;4988764;28;20408;-69
2023/06/02 09:19:14;;;;;;;11.83;6.90;;;;;;;25.37;32.78;96066.53;4988471;28;20677;-69
2023/06/02 09:21:40;;;;;;;27.30;8.30;;;;;;;25.76;32.24;96062.13;4988268;28;20844;-68
2023/06/02 09:24:05;;;;;;;12.70;8.07;;;;;;;25.60;32.71;96066.69;4987994;28;20259;-68
2023/06/02 09:26:31;;;;;;;12.97;7.70;;;;;;;25.55;33.29;96056.44;4988156;28;20263;-67
2023/06/02 09:29:02;;;;;;;11.70;7.37;;;;;;;25.32;33.60;96064.34;4988435;28;20242;-68
2023/06/02 09:31:42;;;;;;;9.60;7.30;;;;;;;25.27;33.17;96064.84;4987841;28;20224;-68
2023/06/02 09:34:08;;;;;;;14.37;7.30;;;;;;;25.46;33.29;96063.66;4986084;28;20435;-68
2023/06/02 09:36:33;;;;;;;9.70;7.77;;;;;;;23.80;35.27;96073.13;4988121;28;20455;-69
2023/06/02 09:39:00;;;;;;;12.00;8.43;;;;;;;24.14;34.91;96071.47;4987961;28;20295;-68
2023/06/02 09:41:28;;;;;;;25.30;8.80;;;;;;;24.17;35.85;96068.50;4988028;28;20585;-68
2023/06/02 09:43:56;;;;;;;13.17;8.80;;;;;;;24.42;35.33;96061.38;4986355;28;20412;-68
2023/06/02 09:46:22;;;;;;;8.00;7.00;;;;;;;24.40;34.21;96063.38;4987593;28;20963;-68
2023/06/02 09:48:55;;;;;;;11.23;7.77;;;;;;;24.65;33.66;96067.88;4987294;28;20479;-68
2023/06/02 09:51:22;;;;;;;10.00;7.17;;;;;;;24.71;34.15;96055.69;4987944;28;20177;-68
2023/06/02 09:53:48;;;;;;;12.17;7.40;;;;;;;24.64;34.38;96063.53;4987608;28;20798;-67
2023/06/02 09:56:23;;;;;;;13.40;7.77;;;;;;;24.33;34.50;96055.19;4987780;28;20407;-69
2023/06/02 09:58:48;;;;;;;15.03;7.03;;;;;;;25.01;32.63;96056.88;4987242;28;20204;-69
2023/06/02 10:01:15;;;;;;;10.33;7.00;;;;;;;25.12;33.10;96058.44;4987452;28;20435;-69
2023/06/02 10:03:44;;;;;;;10.40;6.57;;;;;;;24.96;33.20;96058.41;4987010;28;20179;-69
2023/06/02 10:06:31;;;;;;;15.20;7.43;;;;;;;25.13;33.03;96060.09;4986762;28;20416;-68
2023/06/02 10:09:00;;;;;;;23.23;8.70;;;;;;;25.11;32.60;96056.72;4987016;28;20452;-68
2023/06/02 10:12:10;;;;;;;12.10;7.90;;;;;;;24.33;33.41;96059.66;4987183;28;20412;-68
2023/06/02 10:14:47;;;;;;;10.97;6.80;;;;;;;24.45;33.77;96058.38;4986282;28;20424;-68
2023/06/02 10:17:23;;;;;;;9.33;7.30;;;;;;;23.99;34.70;96066.72;4987462;28;21187;-69
2023/06/02 10:20:22;;;;;;;23.30;8.27;;;;;;;24.83;33.45;96048.16;4987323;28;20927;-68
2023/06/02 10:23:45;;;;;;;21.60;8.93;;;;;;;25.08;33.16;96057.06;4986044;28;20436;-68
2023/06/02 10:26:31;;;;;;;14.13;8.03;;;;;;;24.78;33.36;96061.19;4963425;28;21185;-68
2023/06/02 10:29:00;;;;;;;10.30;7.97;;;;;;;24.97;33.50;96054.69;4986366;28;20506;-69
2023/06/02 10:31:31;;;;;;;21.37;7.17;;;;;;;24.92;33.74;96047.13;4986557;28;20432;-69
2023/06/02 10:33:59;;;;;;;15.63;8.33;;;;;;;25.40;32.32;96040.19;4987426;28;20434;-69
2023/06/02 10:36:25;;;;;;;8.20;6.57;;;;;;;25.14;33.43;96049.19;4987889;28;21015;-68
2023/06/02 10:38:50;;;;;;;16.50;7.30;;;;;;;24.70;32.64;96043.25;4988082;28;20463;-69
2023/06/02 10:41:21;;;;;;;21.23;8.60;;;;;;;24.44;33.02;96046.81;4988019;28;20275;-68
2023/06/02 10:44:25;;;;;;;8.97;6.33;;;;;;;24.47;32.44;96049.22;4988279;28;20319;-69
2023/06/02 10:47:30;;;;;;;7.63;6.83;;;;;;;24.74;32.31;96041.91;4982285;28;20501;-69
2023/06/02 10:50:01;;;;;;;8.47;6.60;;;;;;;24.98;31.96;96040.28;4982162;28;20431;-69
2023/06/02 10:52:32;;;;;;;9.47;6.77;;;;;;;25.29;32.20;96035.97;4987087;28;20466;-68
2023/06/02 10:55:13;;;;;;;8.77;6.87;;;;;;;25.61;31.09;96033.44;4986273;28;20518;-68
2023/06/02 10:58:01;;;;;;;8.30;6.70;;;;;;;25.17;31.03;96044.50;4967527;28;20449;-68
2023/06/02 11:00:29;;;;;;;10.70;6.10;;;;;;;24.83;30.76;96040.09;4979712;28;20438;-68
2023/06/02 11:02:55;;;;;;;10.20;7.03;;;;;;;24.58;31.64;96025.78;4985073;28;20895;-68
2023/06/02 11:05:30;;;;;;;10.40;7.50;;;;;;;24.32;32.50;96039.22;4985661;28;20432;-69
2023/06/02 11:08:11;;;;;;;14.00;7.17;;;;;;;24.59;32.43;96027.44;4985875;28;20212;-68
2023/06/02 11:10:43;;;;;;;41.33;12.67;;;;;;;24.79;32.01;96025.31;4978169;28;20432;-69
2023/06/02 11:13:09;;;;;;;28.67;8.40;;;;;;;25.01;31.89;96027.34;4985488;28;20451;-69
2023/06/02 11:15:35;;;;;;;21.53;8.20;;;;;;;25.19;31.85;96027.25;4985177;28;20446;-68
2023/06/02 11:18:21;;;;;;;13.33;8.70;;;;;;;25.31;30.96;96020.53;4986531;28;20450;-68
2023/06/02 11:20:47;;;;;;;9.47;7.63;;;;;;;25.17;30.64;96029.22;4989919;28;20216;-69
2023/06/02 11:23:12;;;;;;;7.87;6.60;;;;;;;25.04;30.69;96034.25;4989178;28;20460;-68
2023/06/02 11:25:38;;;;;;;9.33;6.90;;;;;;;24.54;31.66;96035.16;4985794;28;20187;-68
2023/06/02 11:28:03;;;;;;;8.63;6.50;;;;;;;24.76;31.15;96033.69;4989973;28;20314;-68
2023/06/02 11:30:29;;;;;;;8.40;6.63;;;;;;;24.54;31.76;96032.47;4989959;28;20185;-68